createdAt,value
2023-08-08T00:00:16.714Z,101.17
2023-08-08T00:01:19.750Z,118.17
2023-08-08T00:02:22.870Z,132.00
2023-08-08T00:03:25.962Z,130.17
2023-08-08T00:04:29.002Z,127.00
2023-08-08T00:05:31.970Z,118.50
2023-08-08T00:06:34.970Z,113.83
2023-08-08T00:07:37.959Z,113.00
2023-08-08T00:08:40.930Z,120.17
2023-08-08T00:09:43.936Z,125.33
2023-08-08T00:10:46.951Z,122.50
2023-08-08T00:11:50.055Z,133.00
2023-08-08T00:12:53.034Z,132.50
2023-08-08T00:13:56.010Z,128.33
2023-08-08T00:14:58.986Z,124.33
2023-08-08T00:16:01.993Z,112.83
2023-08-08T00:17:05.238Z,99.00
2023-08-08T00:18:08.247Z,95.50
2023-08-08T00:19:11.382Z,90.00
2023-08-08T00:20:15.652Z,87.33
2023-08-08T00:21:18.640Z,86.83
2023-08-08T00:22:21.600Z,86.67
2023-08-08T00:23:24.584Z,85.50
2023-08-08T00:24:27.561Z,81.83
2023-08-08T00:25:30.539Z,80.50
2023-08-08T00:26:33.572Z,75.83
2023-08-08T00:27:36.606Z,76.33
2023-08-08T00:28:39.626Z,74.50
2023-08-08T00:29:42.589Z,71.17
2023-08-08T00:30:46.095Z,72.33
2023-08-08T00:31:49.194Z,74.67
2023-08-08T00:32:52.273Z,75.33
2023-08-08T00:33:55.346Z,76.33
2023-08-08T00:34:58.325Z,74.67
2023-08-08T00:36:01.319Z,70.50
2023-08-08T00:37:04.511Z,71.00
2023-08-08T00:38:07.562Z,72.33
2023-08-08T00:39:11.048Z,76.83
2023-08-08T00:40:14.039Z,91.00
2023-08-08T00:41:17.114Z,93.83
2023-08-08T00:42:20.092Z,91.33
2023-08-08T00:43:23.106Z,89.67
2023-08-08T00:44:26.158Z,86.50
2023-08-08T00:45:29.822Z,81.83
2023-08-08T00:46:33.356Z,79.17
2023-08-08T00:47:36.814Z,78.00
2023-08-08T00:48:39.842Z,78.83
2023-08-08T00:49:45.097Z,80.00
2023-08-08T00:50:51.659Z,80.17
2023-08-08T00:51:54.732Z,81.00
2023-08-08T00:52:57.972Z,81.67
2023-08-08T00:54:01.121Z,83.83
2023-08-08T00:55:04.813Z,86.00
2023-08-08T00:56:07.834Z,88.00
2023-08-08T00:57:10.869Z,89.50
2023-08-08T00:58:14.931Z,91.67
2023-08-08T00:59:20.402Z,90.50
2023-08-08T01:00:23.430Z,89.67
2023-08-08T01:01:26.422Z,86.00
2023-08-08T01:02:29.477Z,76.17
2023-08-08T01:03:32.511Z,71.33
2023-08-08T01:04:35.525Z,71.83
2023-08-08T01:05:57.208Z,67.67
2023-08-08T01:07:33.985Z,61.50
2023-08-08T01:08:59.010Z,64.83
2023-08-08T01:10:10.734Z,58.33
2023-08-08T01:11:16.822Z,56.17
2023-08-08T01:12:19.992Z,47.83
2023-08-08T01:13:27.603Z,50.33
2023-08-08T01:14:33.928Z,53.50
2023-08-08T01:15:38.798Z,55.50
2023-08-08T01:16:43.645Z,56.50
2023-08-08T01:17:47.850Z,57.00
2023-08-08T01:18:53.288Z,57.00
2023-08-08T01:19:56.700Z,55.33
2023-08-08T01:21:01.377Z,52.00
2023-08-08T01:22:08.632Z,49.67
2023-08-08T01:23:55.523Z,48.33
2023-08-08T01:25:00.519Z,49.83
2023-08-08T01:26:04.639Z,50.17
2023-08-08T01:27:08.464Z,50.83
2023-08-08T01:28:11.507Z,52.67
2023-08-08T01:29:14.583Z,59.00
2023-08-08T01:30:17.670Z,62.00
2023-08-08T01:31:20.685Z,62.83
2023-08-08T01:32:23.750Z,62.50
2023-08-08T01:33:26.784Z,63.00
2023-08-08T01:34:29.763Z,63.00
2023-08-08T01:35:42.644Z,62.67
2023-08-08T01:37:03.524Z,60.33
2023-08-08T01:38:37.395Z,54.33
2023-08-08T01:39:42.436Z,53.83
2023-08-08T01:40:46.816Z,54.00
2023-08-08T01:41:50.052Z,54.33
2023-08-08T01:42:54.605Z,56.50
2023-08-08T01:43:58.511Z,57.33
2023-08-08T01:45:02.085Z,57.00
2023-08-08T01:46:05.826Z,56.00
2023-08-08T01:47:10.065Z,56.00
2023-08-08T01:48:13.166Z,56.00
2023-08-08T01:49:16.261Z,58.83
2023-08-08T01:50:19.351Z,64.67
2023-08-08T01:51:22.363Z,65.17
2023-08-08T01:52:25.357Z,65.00
2023-08-08T01:53:28.690Z,65.00
2023-08-08T01:54:31.690Z,64.17
2023-08-08T01:55:34.667Z,63.83
2023-08-08T01:56:37.690Z,62.33
2023-08-08T01:57:40.841Z,61.00
2023-08-08T01:58:43.829Z,60.00
2023-08-08T01:59:47.335Z,59.67
2023-08-08T02:00:50.403Z,59.00
2023-08-08T02:01:53.447Z,59.17
2023-08-08T02:02:56.588Z,63.67
2023-08-08T02:03:59.578Z,69.50
2023-08-08T02:05:03.904Z,72.17
2023-08-08T02:06:06.934Z,76.50
2023-08-08T02:07:09.909Z,78.17
2023-08-08T02:08:14.005Z,76.33
2023-08-08T02:09:17.489Z,75.67
2023-08-08T02:10:21.554Z,79.83
2023-08-08T02:11:24.534Z,81.00
2023-08-08T02:12:27.522Z,80.33
2023-08-08T02:13:31.570Z,78.83
2023-08-08T02:14:34.551Z,77.33
2023-08-08T02:15:37.556Z,77.00
2023-08-08T02:16:40.858Z,77.17
2023-08-08T02:17:43.903Z,79.33
2023-08-08T02:18:46.925Z,80.17
2023-08-08T02:19:50.024Z,80.50
2023-08-08T02:20:53.001Z,80.33
2023-08-08T02:21:56.080Z,85.17
2023-08-08T02:22:59.093Z,88.17
2023-08-08T02:24:02.106Z,87.00
2023-08-08T02:25:05.737Z,88.17
2023-08-08T02:26:09.430Z,89.33
2023-08-08T02:27:13.998Z,92.50
2023-08-08T02:28:17.039Z,96.17
2023-08-08T02:29:20.037Z,93.67
2023-08-08T02:30:23.033Z,92.50
2023-08-08T02:31:26.044Z,91.00
2023-08-08T02:32:29.244Z,88.67
2023-08-08T02:33:32.226Z,86.33
2023-08-08T02:34:35.220Z,85.17
2023-08-08T02:35:39.121Z,83.67
2023-08-08T02:36:42.158Z,81.33
2023-08-08T02:37:45.273Z,84.83
2023-08-08T02:38:48.317Z,98.67
2023-08-08T02:39:51.593Z,106.67
2023-08-08T02:40:54.598Z,102.83
2023-08-08T02:41:57.755Z,100.17
2023-08-08T02:43:01.379Z,100.83
2023-08-08T02:44:04.471Z,99.50
2023-08-08T02:45:08.182Z,97.67
2023-08-08T02:46:11.236Z,94.50
2023-08-08T02:47:14.246Z,92.50
2023-08-08T02:48:17.285Z,93.83
2023-08-08T02:49:20.328Z,94.83
2023-08-08T02:50:23.362Z,94.83
2023-08-08T02:51:26.385Z,94.33
2023-08-08T02:52:29.351Z,95.00
2023-08-08T02:53:32.324Z,96.17
2023-08-08T02:54:35.327Z,102.17
2023-08-08T02:55:38.548Z,111.50
2023-08-08T02:56:41.537Z,113.67
2023-08-08T02:57:44.554Z,116.00
2023-08-08T02:58:47.528Z,113.33
2023-08-08T02:59:50.515Z,111.50
2023-08-08T03:00:53.761Z,107.33
2023-08-08T03:01:56.989Z,104.17
2023-08-08T03:03:00.023Z,104.00
2023-08-08T03:04:03.061Z,104.00
2023-08-08T03:05:07.007Z,101.67
2023-08-08T03:06:10.224Z,90.67
2023-08-08T03:07:13.213Z,87.33
2023-08-08T03:08:16.213Z,87.67
2023-08-08T03:09:19.200Z,86.83
2023-08-08T03:10:22.175Z,84.17
2023-08-08T03:11:25.245Z,83.17
2023-08-08T03:12:28.220Z,84.33
2023-08-08T03:13:31.266Z,83.50
2023-08-08T03:14:34.821Z,83.17
2023-08-08T03:15:38.142Z,83.50
2023-08-08T03:16:41.146Z,84.00
2023-08-08T03:17:44.217Z,84.00
2023-08-08T03:18:47.224Z,83.50
2023-08-08T03:19:50.275Z,84.50
2023-08-08T03:20:54.397Z,85.50
2023-08-08T03:21:57.735Z,86.50
2023-08-08T03:23:01.128Z,84.00
2023-08-08T03:24:04.371Z,83.00
2023-08-08T03:25:08.007Z,82.67
2023-08-08T03:26:10.992Z,81.00
2023-08-08T03:27:14.021Z,80.17
2023-08-08T03:28:17.008Z,81.67
2023-08-08T03:29:20.053Z,87.67
2023-08-08T03:30:23.121Z,97.83
2023-08-08T03:31:27.322Z,97.50
2023-08-08T03:32:30.368Z,97.33
2023-08-08T03:33:33.376Z,97.50
2023-08-08T03:34:36.468Z,97.00
2023-08-08T03:35:39.587Z,98.33
2023-08-08T03:36:43.735Z,102.17
2023-08-08T03:37:46.813Z,104.00
2023-08-08T03:38:49.806Z,102.33
2023-08-08T03:39:52.769Z,99.50
2023-08-08T03:40:56.283Z,91.00
2023-08-08T03:41:59.346Z,90.67
2023-08-08T03:43:02.671Z,89.50
2023-08-08T03:44:05.829Z,83.67
2023-08-08T03:45:09.941Z,77.17
2023-08-08T03:46:12.942Z,77.00
2023-08-08T03:47:19.930Z,76.33
2023-08-08T03:48:23.694Z,78.17
2023-08-08T03:49:26.944Z,85.00
2023-08-08T03:50:29.961Z,90.67
2023-08-08T03:51:32.961Z,88.00
2023-08-08T03:52:38.333Z,85.50
2023-08-08T03:53:41.370Z,83.67
2023-08-08T03:54:45.334Z,72.00
2023-08-08T03:55:48.298Z,63.50
2023-08-08T03:56:51.274Z,63.50
2023-08-08T03:57:54.432Z,65.00
2023-08-08T03:58:59.499Z,66.33
2023-08-08T04:00:02.634Z,66.50
2023-08-08T04:01:05.712Z,66.33
2023-08-08T04:02:08.945Z,66.00
2023-08-08T04:03:12.729Z,66.67
2023-08-08T04:04:17.790Z,70.50
2023-08-08T04:05:20.803Z,81.50
2023-08-08T04:06:23.779Z,86.33
2023-08-08T04:07:26.757Z,92.67
2023-08-08T04:08:29.776Z,93.83
2023-08-08T04:09:32.965Z,93.67
2023-08-08T04:10:35.936Z,93.50
2023-08-08T04:11:38.923Z,92.83
2023-08-08T04:12:41.896Z,99.83
2023-08-08T04:13:44.932Z,106.83
2023-08-08T04:14:47.947Z,101.83
2023-08-08T04:15:52.994Z,100.17
2023-08-08T04:16:56.082Z,99.67
2023-08-08T04:17:59.160Z,99.50
2023-08-08T04:19:04.549Z,106.67
2023-08-08T04:20:08.416Z,115.83
2023-08-08T04:21:11.404Z,117.83
2023-08-08T04:22:14.399Z,125.83
2023-08-08T04:23:17.425Z,147.83
2023-08-08T04:24:20.399Z,162.50
2023-08-08T04:25:23.414Z,191.17
2023-08-08T04:26:26.890Z,186.00
2023-08-08T04:27:30.314Z,169.67
2023-08-08T04:28:33.571Z,175.50
2023-08-08T04:29:36.548Z,178.67
2023-08-08T04:30:39.677Z,172.83
2023-08-08T04:31:42.737Z,185.33
2023-08-08T04:32:46.480Z,188.33
2023-08-08T04:33:49.498Z,178.00
2023-08-08T04:34:52.470Z,181.17
2023-08-08T04:35:55.461Z,176.67
2023-08-08T04:36:58.472Z,172.50
2023-08-08T04:38:01.469Z,181.50
2023-08-08T04:39:04.504Z,200.33
2023-08-08T04:40:09.733Z,198.83
2023-08-08T04:41:12.783Z,183.83
2023-08-08T04:42:15.784Z,179.83
2023-08-08T04:43:18.771Z,178.83
2023-08-08T04:44:21.758Z,171.67
2023-08-08T04:45:24.770Z,177.83
2023-08-08T04:46:27.812Z,189.67
2023-08-08T04:47:30.808Z,186.83
2023-08-08T04:48:33.914Z,190.50
2023-08-08T04:49:36.906Z,203.33
2023-08-08T04:50:40.329Z,192.00
2023-08-08T04:51:43.318Z,174.00
2023-08-08T04:52:46.300Z,137.00
2023-08-08T04:53:49.279Z,108.83
2023-08-08T04:54:52.274Z,80.67
2023-08-08T04:55:55.278Z,63.33
2023-08-08T04:56:58.285Z,62.33
2023-08-08T04:58:01.268Z,70.33
2023-08-08T04:59:04.312Z,79.17
2023-08-08T05:00:09.726Z,89.17
2023-08-08T05:01:15.686Z,83.50
2023-08-08T05:02:18.731Z,80.50
2023-08-08T05:03:21.861Z,72.50
2023-08-08T05:04:24.916Z,68.00
2023-08-08T05:05:27.993Z,66.17
2023-08-08T05:06:31.014Z,76.50
2023-08-08T05:07:33.999Z,94.00
2023-08-08T05:08:36.993Z,148.50
2023-08-08T05:09:39.987Z,144.50
2023-08-08T05:10:42.994Z,132.50
2023-08-08T05:11:46.031Z,126.67
2023-08-08T05:12:49.041Z,123.00
2023-08-08T05:13:52.014Z,121.83
2023-08-08T05:14:55.019Z,127.50
2023-08-08T05:15:58.067Z,131.17
2023-08-08T05:17:04.187Z,144.00
2023-08-08T05:18:07.172Z,152.50
2023-08-08T05:19:10.290Z,166.33
2023-08-08T05:20:13.488Z,177.67
2023-08-08T05:21:16.457Z,192.00
2023-08-08T05:22:19.456Z,183.67
2023-08-08T05:23:25.164Z,170.83
2023-08-08T05:24:34.080Z,180.00
2023-08-08T05:25:37.171Z,204.67
2023-08-08T05:26:40.152Z,203.67
2023-08-08T05:27:43.451Z,192.33
2023-08-08T05:28:46.451Z,195.83
2023-08-08T05:29:49.427Z,207.67
2023-08-08T05:30:52.495Z,219.67
2023-08-08T05:31:55.564Z,243.67
2023-08-08T05:32:58.570Z,258.83
2023-08-08T05:34:01.565Z,266.33
2023-08-08T05:35:05.657Z,297.17
2023-08-08T05:36:08.687Z,297.17
2023-08-08T05:37:17.078Z,283.00
2023-08-08T05:38:20.804Z,272.33
2023-08-08T05:39:23.780Z,269.17
2023-08-08T05:40:26.775Z,257.33
2023-08-08T05:41:29.765Z,253.83
2023-08-08T05:42:33.109Z,246.67
2023-08-08T05:43:36.721Z,240.83
2023-08-08T05:44:39.708Z,247.33
2023-08-08T05:45:42.678Z,262.00
2023-08-08T05:46:45.692Z,285.50
2023-08-08T05:47:48.733Z,277.83
2023-08-08T05:48:51.786Z,266.17
2023-08-08T05:49:54.775Z,254.50
2023-08-08T05:50:59.926Z,243.50
2023-08-08T05:52:04.060Z,287.00
2023-08-08T05:53:07.520Z,316.33
2023-08-08T05:54:12.631Z,285.67
2023-08-08T05:55:15.749Z,277.83
2023-08-08T05:56:18.784Z,276.17
2023-08-08T05:57:22.731Z,256.00
2023-08-08T05:58:25.827Z,251.33
2023-08-08T05:59:28.805Z,255.17
2023-08-08T06:00:33.020Z,267.33
2023-08-08T06:01:36.770Z,290.17
2023-08-08T06:02:39.994Z,292.67
2023-08-08T06:03:43.681Z,292.17
2023-08-08T06:04:46.698Z,282.83
2023-08-08T06:05:49.691Z,274.83
2023-08-08T06:06:52.661Z,276.33
2023-08-08T06:07:58.896Z,271.33
2023-08-08T06:09:01.863Z,266.17
2023-08-08T06:10:05.752Z,265.50
2023-08-08T06:11:08.726Z,260.00
2023-08-08T06:12:11.751Z,247.50
2023-08-08T06:13:14.760Z,237.67
2023-08-08T06:14:18.699Z,233.50
2023-08-08T06:15:21.831Z,229.50
2023-08-08T06:16:24.857Z,236.17
2023-08-08T06:17:27.884Z,239.67
2023-08-08T06:18:31.260Z,244.67
2023-08-08T06:19:34.261Z,206.50
2023-08-08T06:20:37.632Z,198.67
2023-08-08T06:21:40.731Z,196.50
2023-08-08T06:22:43.722Z,197.50
2023-08-08T06:23:47.644Z,205.83
2023-08-08T06:24:50.709Z,215.50
2023-08-08T06:25:53.720Z,213.67
2023-08-08T06:26:56.771Z,187.67
2023-08-08T06:27:59.801Z,191.67
2023-08-08T06:29:02.867Z,205.50
2023-08-08T06:30:06.977Z,243.67
2023-08-08T06:31:10.025Z,243.83
2023-08-08T06:32:13.031Z,214.83
2023-08-08T06:33:16.108Z,204.83
2023-08-08T06:34:19.097Z,201.17
2023-08-08T06:35:22.063Z,189.50
2023-08-08T06:36:25.060Z,198.17
2023-08-08T06:37:28.417Z,201.83
2023-08-08T06:38:34.983Z,211.33
2023-08-08T06:39:39.789Z,206.00
2023-08-08T06:40:42.783Z,190.67
2023-08-08T06:41:45.747Z,196.83
2023-08-08T06:42:48.721Z,212.83
2023-08-08T06:43:52.524Z,212.50
2023-08-08T06:44:55.511Z,208.17
2023-08-08T06:45:58.900Z,207.00
2023-08-08T06:47:01.924Z,196.00
2023-08-08T06:48:05.544Z,181.17
2023-08-08T06:49:09.987Z,180.50
2023-08-08T06:50:12.958Z,179.00
2023-08-08T06:51:16.037Z,179.17
2023-08-08T06:52:19.030Z,156.67
2023-08-08T06:53:22.007Z,147.50
2023-08-08T06:54:25.000Z,167.50
2023-08-08T06:55:28.045Z,170.83
2023-08-08T06:56:31.136Z,169.83
2023-08-08T06:57:36.103Z,169.67
2023-08-08T06:58:39.118Z,176.67
2023-08-08T06:59:42.675Z,180.33
2023-08-08T07:00:46.290Z,153.83
2023-08-08T07:01:49.856Z,154.50
2023-08-08T07:02:52.891Z,154.00
2023-08-08T07:03:55.974Z,156.83
2023-08-08T07:04:58.954Z,145.50
2023-08-08T07:06:01.920Z,126.33
2023-08-08T07:07:05.288Z,113.50
2023-08-08T07:08:10.030Z,130.50
2023-08-08T07:09:13.270Z,141.33
2023-08-08T07:10:17.092Z,142.83
2023-08-08T07:11:20.082Z,146.17
2023-08-08T07:12:23.087Z,148.83
2023-08-08T07:13:26.092Z,137.00
2023-08-08T07:14:29.083Z,139.17
2023-08-08T07:15:32.429Z,133.50
2023-08-08T07:16:35.611Z,126.83
2023-08-08T07:17:38.628Z,125.67
2023-08-08T07:18:41.628Z,129.17
2023-08-08T07:19:44.701Z,145.50
2023-08-08T07:20:47.681Z,186.17
2023-08-08T07:21:51.311Z,183.17
2023-08-08T07:22:54.500Z,188.33
2023-08-08T07:23:58.607Z,193.17
2023-08-08T07:25:01.676Z,193.33
2023-08-08T07:26:04.668Z,236.67
2023-08-08T07:27:07.651Z,267.83
2023-08-08T07:28:10.651Z,252.17
2023-08-08T07:29:14.005Z,216.17
2023-08-08T07:30:17.255Z,206.00
2023-08-08T07:31:20.262Z,196.00
2023-08-08T07:32:23.385Z,194.00
2023-08-08T07:33:26.428Z,193.67
2023-08-08T07:34:29.437Z,205.00
2023-08-08T07:35:34.258Z,239.33
2023-08-08T07:36:37.260Z,250.33
2023-08-08T07:37:40.273Z,243.17
2023-08-08T07:38:43.266Z,258.50
2023-08-08T07:39:46.254Z,255.17
2023-08-08T07:40:49.819Z,242.67
2023-08-08T07:41:53.181Z,243.00
2023-08-08T07:42:56.154Z,241.67
2023-08-08T07:43:59.152Z,271.17
2023-08-08T07:45:02.134Z,264.83
2023-08-08T07:46:05.261Z,254.83
2023-08-08T07:47:09.440Z,260.17
2023-08-08T07:48:14.153Z,239.17
2023-08-08T07:49:17.395Z,209.33
2023-08-08T07:50:20.372Z,222.00
2023-08-08T07:51:23.345Z,234.00
2023-08-08T07:52:26.349Z,259.00
2023-08-08T07:53:29.358Z,260.33
2023-08-08T07:54:32.488Z,278.17
2023-08-08T07:55:35.513Z,284.00
2023-08-08T07:56:38.682Z,271.00
2023-08-08T07:57:41.659Z,274.33
2023-08-08T07:58:44.659Z,244.50
2023-08-08T07:59:47.628Z,200.67
2023-08-08T08:00:50.684Z,158.00
2023-08-08T08:01:53.834Z,182.00
2023-08-08T08:02:56.919Z,242.00
2023-08-08T08:04:00.123Z,276.17
2023-08-08T08:05:06.282Z,255.17
2023-08-08T08:06:09.333Z,273.67
2023-08-08T08:07:12.377Z,291.17
2023-08-08T08:08:15.383Z,330.00
2023-08-08T08:09:18.584Z,319.33
2023-08-08T08:10:21.562Z,313.83
2023-08-08T08:11:24.542Z,322.00
2023-08-08T08:12:27.540Z,290.33
2023-08-08T08:13:30.531Z,245.17
2023-08-08T08:14:33.506Z,242.33
2023-08-08T08:15:36.490Z,234.50
2023-08-08T08:16:39.562Z,227.17
2023-08-08T08:17:43.073Z,237.17
2023-08-08T08:18:46.101Z,244.17
2023-08-08T08:19:49.344Z,226.33
2023-08-08T08:20:52.322Z,199.50
2023-08-08T08:21:55.382Z,217.00
2023-08-08T08:22:58.365Z,219.00
2023-08-08T08:24:01.380Z,228.17
2023-08-08T08:25:05.333Z,260.83
2023-08-08T08:26:08.458Z,261.83
2023-08-08T08:27:11.449Z,257.33
2023-08-08T08:28:14.504Z,252.67
2023-08-08T08:29:17.498Z,343.00
2023-08-08T08:30:20.842Z,381.00
2023-08-08T08:31:24.089Z,365.00
2023-08-08T08:32:27.304Z,356.33
2023-08-08T08:33:30.329Z,397.33
2023-08-08T08:34:33.326Z,361.83
2023-08-08T08:35:37.128Z,308.00
2023-08-08T08:36:40.122Z,298.33
2023-08-08T08:37:43.126Z,306.00
2023-08-08T08:38:48.012Z,297.33
2023-08-08T08:39:51.004Z,286.50
2023-08-08T08:40:57.516Z,289.67
2023-08-08T08:42:06.286Z,297.00
2023-08-08T08:43:11.079Z,274.17
2023-08-08T08:44:15.514Z,198.33
2023-08-08T08:45:22.638Z,257.67
2023-08-08T08:46:27.942Z,234.17
2023-08-08T08:47:33.467Z,210.67
2023-08-08T08:48:36.685Z,247.00
2023-08-08T08:49:44.413Z,244.00
2023-08-08T08:50:50.266Z,228.50
2023-08-08T08:51:53.467Z,227.67
2023-08-08T08:52:57.910Z,241.50
2023-08-08T08:54:01.135Z,256.67
2023-08-08T08:55:06.118Z,250.33
2023-08-08T08:56:09.780Z,239.00
2023-08-08T08:57:13.445Z,252.50
2023-08-08T08:58:20.224Z,288.00
2023-08-08T08:59:23.206Z,281.50
2023-08-08T09:00:27.140Z,265.33
2023-08-08T09:01:30.435Z,252.67
2023-08-08T09:02:33.534Z,267.67
2023-08-08T09:03:38.095Z,276.00
2023-08-08T09:04:41.617Z,272.67
2023-08-08T09:05:46.169Z,272.67
2023-08-08T09:06:51.387Z,269.83
2023-08-08T09:07:54.849Z,259.83
2023-08-08T09:09:07.295Z,239.67
2023-08-08T09:10:20.644Z,225.50
2023-08-08T09:11:23.722Z,228.67
2023-08-08T09:12:26.985Z,227.17
2023-08-08T09:13:39.747Z,219.67
2023-08-08T09:14:43.138Z,234.67
2023-08-08T09:15:49.534Z,232.17
2023-08-08T09:16:54.564Z,232.17
2023-08-08T09:17:57.842Z,233.33
2023-08-08T09:19:02.108Z,223.83
2023-08-08T09:20:06.655Z,220.50
2023-08-08T09:21:09.719Z,183.00
2023-08-08T09:22:15.054Z,175.33
2023-08-08T09:23:18.288Z,206.67
2023-08-08T09:24:21.610Z,208.50
2023-08-08T09:25:25.546Z,193.50
2023-08-08T09:26:30.302Z,165.17
2023-08-08T09:27:33.659Z,158.50
2023-08-08T09:28:36.678Z,166.83
2023-08-08T09:29:39.966Z,138.17
2023-08-08T09:30:44.204Z,119.50
2023-08-08T09:31:48.844Z,114.83
2023-08-08T09:32:51.877Z,144.17
2023-08-08T09:34:04.856Z,173.50
2023-08-08T09:35:11.725Z,192.00
2023-08-08T09:36:17.450Z,182.83
2023-08-08T09:37:21.351Z,156.33
2023-08-08T09:38:24.422Z,184.50
2023-08-08T09:39:29.558Z,193.50
2023-08-08T09:40:33.110Z,185.33
2023-08-08T09:41:36.372Z,185.50
2023-08-08T09:42:42.593Z,185.00
2023-08-08T09:43:53.357Z,183.67
2023-08-08T09:44:58.266Z,142.33
2023-08-08T09:46:01.291Z,143.33
2023-08-08T09:47:04.292Z,139.67
2023-08-08T09:48:08.190Z,125.50
2023-08-08T09:49:14.283Z,128.83
2023-08-08T09:50:17.562Z,172.00
2023-08-08T09:51:22.668Z,177.50
2023-08-08T09:52:28.464Z,175.83
2023-08-08T09:53:31.584Z,155.17
2023-08-08T09:54:35.599Z,159.17
2023-08-08T09:55:39.030Z,143.33
2023-08-08T09:56:42.676Z,116.83
2023-08-08T09:57:46.871Z,98.00
2023-08-08T09:58:50.121Z,116.17
2023-08-08T09:59:53.882Z,131.17
2023-08-08T10:00:56.892Z,130.33
2023-08-08T10:02:01.353Z,134.83
2023-08-08T10:03:04.968Z,103.50
2023-08-08T10:04:09.510Z,91.00
2023-08-08T10:05:15.382Z,96.67
2023-08-08T10:06:18.440Z,102.67
2023-08-08T10:07:21.493Z,90.67
2023-08-08T10:08:24.856Z,95.67
2023-08-08T10:09:28.060Z,110.17
2023-08-08T10:10:32.277Z,107.33
2023-08-08T10:11:36.676Z,99.17
2023-08-08T10:12:41.349Z,102.50
2023-08-08T10:13:55.037Z,103.33
2023-08-08T10:14:58.437Z,130.17
2023-08-08T10:16:09.589Z,127.83
2023-08-08T10:17:16.945Z,117.17
2023-08-08T10:18:23.424Z,119.67
2023-08-08T10:19:26.552Z,138.17
2023-08-08T10:20:33.300Z,180.33
2023-08-08T10:21:38.910Z,201.50
2023-08-08T10:22:48.147Z,150.50
2023-08-08T10:23:51.441Z,102.67
2023-08-08T10:24:55.648Z,89.00
2023-08-08T10:25:58.619Z,90.67
2023-08-08T10:27:03.417Z,111.17
2023-08-08T10:29:22.370Z,140.33
2023-08-08T10:30:25.352Z,140.50
2023-08-08T10:31:36.295Z,117.33
2023-08-08T10:32:44.991Z,105.50
2023-08-08T10:33:48.135Z,78.67
2023-08-08T10:34:51.426Z,85.33
2023-08-08T10:36:02.721Z,88.50
2023-08-08T10:37:17.189Z,94.17
2023-08-08T10:38:20.174Z,101.83
2023-08-08T10:39:23.224Z,121.67
2023-08-08T10:40:34.228Z,120.83
2023-08-08T10:41:50.217Z,120.33
2023-08-08T10:42:53.736Z,120.83
2023-08-08T10:43:58.956Z,97.83
2023-08-08T10:45:04.384Z,72.17
2023-08-08T10:46:13.936Z,87.00
2023-08-08T10:47:18.084Z,76.67
2023-08-08T10:48:21.513Z,67.83
2023-08-08T10:49:24.727Z,82.17
2023-08-08T10:50:27.724Z,79.67
2023-08-08T10:51:45.220Z,72.67
2023-08-08T10:52:53.767Z,74.50
2023-08-08T10:53:57.006Z,78.83
2023-08-08T10:55:00.252Z,79.83
2023-08-08T10:56:05.476Z,78.17
2023-08-08T10:57:17.443Z,61.67
2023-08-08T10:58:21.306Z,58.50
2023-08-08T10:59:29.163Z,59.00
2023-08-08T11:00:37.844Z,63.00
2023-08-08T11:01:41.915Z,66.17
2023-08-08T11:02:46.168Z,68.83
2023-08-08T11:03:50.823Z,69.83
2023-08-08T11:04:54.032Z,62.83
2023-08-08T11:05:57.043Z,54.67
2023-08-08T11:07:00.414Z,55.83
2023-08-08T11:08:06.513Z,50.33
2023-08-08T11:09:11.149Z,54.50
2023-08-08T11:10:14.342Z,56.67
2023-08-08T11:11:18.427Z,60.17
2023-08-08T11:12:21.509Z,76.50
2023-08-08T11:13:24.498Z,79.83
2023-08-08T11:14:27.501Z,78.00
2023-08-08T11:15:33.574Z,77.50
2023-08-08T11:16:36.587Z,67.67
2023-08-08T11:17:40.000Z,61.17
2023-08-08T11:18:44.387Z,59.67
2023-08-08T11:19:47.433Z,57.83
2023-08-08T11:20:52.530Z,59.50
2023-08-08T11:21:56.824Z,66.83
2023-08-08T11:23:00.908Z,87.50
2023-08-08T11:24:06.085Z,127.33
2023-08-08T11:25:09.647Z,100.17
2023-08-08T11:27:42.632Z,67.00
2023-08-08T11:28:51.646Z,66.83
2023-08-08T11:29:54.713Z,61.67
2023-08-08T11:30:58.138Z,45.83
2023-08-08T11:32:03.017Z,38.17
2023-08-08T11:34:13.919Z,56.83
2023-08-08T11:35:24.538Z,55.17
2023-08-08T11:36:35.925Z,52.00
2023-08-08T11:37:39.527Z,54.17
2023-08-08T11:38:44.662Z,86.50
2023-08-08T11:39:48.033Z,87.83
2023-08-08T11:40:53.547Z,76.17
2023-08-08T11:41:59.712Z,43.83
2023-08-08T11:43:03.239Z,49.83
2023-08-08T11:44:07.030Z,48.17
2023-08-08T11:45:11.488Z,39.33
2023-08-08T11:46:16.373Z,35.83
2023-08-08T11:47:26.099Z,31.67
2023-08-08T11:48:29.153Z,37.00
2023-08-08T11:49:32.203Z,42.67
2023-08-08T11:50:38.912Z,40.67
2023-08-08T11:51:45.166Z,41.83
2023-08-08T11:52:48.409Z,44.67
2023-08-08T11:53:55.095Z,50.50
2023-08-08T11:55:01.766Z,50.00
2023-08-08T11:56:06.907Z,48.33
2023-08-08T11:57:10.842Z,42.33
2023-08-08T11:58:15.963Z,42.00
2023-08-08T11:59:20.898Z,39.83
2023-08-08T12:00:30.566Z,30.50
2023-08-08T12:01:34.790Z,22.67
2023-08-08T12:02:37.834Z,22.17
2023-08-08T12:03:41.350Z,25.17
2023-08-08T12:04:48.218Z,27.83
2023-08-08T12:05:51.245Z,29.83
2023-08-08T12:07:05.047Z,38.83
2023-08-08T12:08:08.285Z,52.50
2023-08-08T12:09:16.511Z,49.33
2023-08-08T12:10:24.595Z,48.00
2023-08-08T12:11:29.370Z,45.00
2023-08-08T12:12:39.666Z,41.33
2023-08-08T12:13:45.554Z,41.00
2023-08-08T12:14:51.456Z,42.00
2023-08-08T12:17:08.237Z,66.00
2023-08-08T12:18:11.370Z,58.50
2023-08-08T12:19:18.916Z,60.83
2023-08-08T12:20:21.900Z,92.33
2023-08-08T12:21:24.885Z,115.33
2023-08-08T12:22:28.257Z,94.67
2023-08-08T12:23:33.211Z,72.50
2023-08-08T12:24:36.373Z,57.33
2023-08-08T12:25:40.425Z,32.83
2023-08-08T12:26:43.415Z,25.00
2023-08-08T12:27:46.391Z,25.33
2023-08-08T12:28:51.547Z,27.17
2023-08-08T12:29:54.525Z,28.33
2023-08-08T12:30:57.559Z,23.67
2023-08-08T12:32:00.601Z,27.33
2023-08-08T12:33:03.680Z,30.33
2023-08-08T12:34:07.472Z,31.00
2023-08-08T12:35:11.387Z,34.17
2023-08-08T12:36:15.540Z,37.00
2023-08-08T12:37:19.046Z,31.50
2023-08-08T12:38:22.061Z,26.00
2023-08-08T12:39:25.038Z,25.67
2023-08-08T12:40:28.171Z,20.83
2023-08-08T12:41:31.135Z,14.00
2023-08-08T12:42:34.164Z,14.17
2023-08-08T12:43:37.171Z,17.17
2023-08-08T12:44:40.160Z,18.00
2023-08-08T12:45:43.144Z,17.33
2023-08-08T12:46:46.151Z,19.17
2023-08-08T12:47:49.218Z,27.67
2023-08-08T12:48:52.478Z,28.83
2023-08-08T12:49:55.505Z,27.00
2023-08-08T12:50:58.540Z,20.50
2023-08-08T12:52:01.514Z,23.50
2023-08-08T12:53:05.441Z,36.67
2023-08-08T12:54:08.599Z,36.00
2023-08-08T12:55:12.978Z,26.33
2023-08-08T12:56:16.039Z,20.33
2023-08-08T12:57:19.042Z,19.00
2023-08-08T12:58:22.916Z,18.67
2023-08-08T12:59:27.215Z,18.83
2023-08-08T13:00:30.362Z,54.17
2023-08-08T13:01:33.514Z,229.00
2023-08-08T13:02:36.614Z,378.50
2023-08-08T13:03:43.228Z,293.17
2023-08-08T13:04:48.400Z,153.17
2023-08-08T13:05:51.388Z,99.33
2023-08-08T13:06:55.018Z,81.00
2023-08-08T13:07:58.046Z,66.67
2023-08-08T13:09:01.565Z,37.50
2023-08-08T13:10:04.993Z,22.17
2023-08-08T13:11:07.960Z,19.83
2023-08-08T13:12:10.938Z,24.33
2023-08-08T13:13:14.390Z,27.67
2023-08-08T13:14:17.509Z,43.00
2023-08-08T13:15:20.587Z,52.83
2023-08-08T13:16:23.623Z,56.83
2023-08-08T13:17:26.630Z,57.33
2023-08-08T13:18:29.609Z,50.67
2023-08-08T13:19:33.425Z,42.00
2023-08-08T13:20:36.428Z,45.50
2023-08-08T13:21:40.345Z,47.17
2023-08-08T13:22:43.876Z,49.33
2023-08-08T13:23:47.233Z,50.00
2023-08-08T13:24:50.238Z,51.67
2023-08-08T13:25:53.216Z,53.67
2023-08-08T13:26:56.202Z,54.67
2023-08-08T13:27:59.179Z,62.00
2023-08-08T13:29:02.194Z,74.83
2023-08-08T13:30:07.316Z,72.67
2023-08-08T13:31:10.360Z,70.17
2023-08-08T13:32:13.592Z,55.17
2023-08-08T13:33:16.577Z,38.33
2023-08-08T13:34:19.565Z,38.17
2023-08-08T13:35:22.580Z,35.17
2023-08-08T13:36:25.670Z,30.83
2023-08-08T13:37:28.659Z,27.17